| Date | Time | Temp. (oF) | Dew Point (oF) | Rel. Hum. (%) | Press. (in.) | Wind Dir. | Wind Speed (mph) | Hourly Rainfall (in.) |
|
|---|---|---|---|---|---|---|---|---|---|
| 1 | 11/28 | 00:00 | 33 | 26 | 78 | 30.15 | NW | 4 | 0.00 |
| 2 | 11/27 | 23:00 | 34 | 25 | 72 | 30.14 | WNW | 3 | 0.00 |
| 3 | 11/27 | 22:00 | 35 | 25 | 69 | 30.12 | NW | 4 | 0.00 |
| 4 | 11/27 | 21:00 | 35 | 24 | 66 | 30.09 | W | 3 | 0.00 |
| 5 | 11/27 | 20:00 | 36 | 24 | 62 | 30.08 | SW | 5 | 0.00 |
| 6 | 11/27 | 19:00 | 36 | 23 | 59 | 30.05 | NW | 10 | 0.00 |
| 7 | 11/27 | 18:00 | 36 | 23 | 60 | 30.02 | NNW | 7 | 0.00 |
| 8 | 11/27 | 17:00 | 37 | 22 | 55 | 30.00 | NNW | 12 | 0.00 |
| 9 | 11/27 | 16:00 | 39 | 22 | 52 | 29.96 | NW | 9 | 0.00 |
| 10 | 11/27 | 15:00 | 40 | 24 | 53 | 29.92 | N | 4 | 0.00 |
| 11 | 11/27 | 14:00 | 41 | 25 | 53 | 29.89 | W | 7 | 0.00 |
| 12 | 11/27 | 13:00 | 42 | 25 | 52 | 29.87 | SW | 11 | 0.00 |
| 13 | 11/27 | 12:00 | 41 | 26 | 56 | 29.87 | NNW | 12 | 0.00 |
| 14 | 11/27 | 11:00 | 39 | 25 | 57 | 29.86 | WNW | 15 | 0.00 |
| 15 | 11/27 | 10:00 | 39 | 26 | 60 | 29.85 | NW | 21 | 0.00 |
| 16 | 11/27 | 09:00 | 36 | 26 | 67 | 29.83 | WNW | 9 | 0.00 |
| 17 | 11/27 | 08:00 | 32 | 22 | 68 | 29.82 | SW | 8 | 0.00 |
| 18 | 11/27 | 07:00 | 31 | 20 | 66 | 29.80 | WSW | 4 | 0.00 |
| 19 | 11/27 | 06:00 | 30 | 21 | 70 | 29.78 | WSW | 4 | 0.00 |
| 20 | 11/27 | 05:00 | 30 | 20 | 68 | 29.76 | W | 3 | 0.00 |
| 21 | 11/27 | 04:00 | 30 | 20 | 67 | 29.76 | SW | 4 | 0.00 |
| 22 | 11/27 | 03:00 | 31 | 22 | 69 | 29.77 | NW | 5 | 0.00 |
| 23 | 11/27 | 02:00 | 31 | 22 | 69 | 29.76 | W | 1 | 0.00 |
| 24 | 11/27 | 01:00 | 32 | 22 | 69 | 29.75 | W | 4 | 0.00 |